Terminal Aerodrome Forecast
Issued by NWS Charleston, WV

Current Version | Previous Version | Graphics & Text | Print | Product List | Glossary On
Versions: 1 2 3 4 5 6 7 8 9 10 11 12 13 14 15 16 17 18 19 20 21 22 23 24 25 26 27 28
000
FTUS41 KRLX 181500 AAA
TAFBKW
TAF AMD
KBKW 181501Z 1815/1912 01006KT P6SM FEW022
     FM181600 00000KT P6SM SCT030
     FM182100 35005KT P6SM BKN035
     FM182200 36004KT P6SM SCT140=

USA.gov is the U.S. government's official web portal to all federal, state and local government web resources and services.